Aérodrome :
LOGIN :

S'inscrire | Disclaimer

   EN    FR    IT 

 










Légende :    VFR   VFR Marginal   IFR   IFR Intensif   IFR Très Intensif
Visi : 
Plafond : 
>= 8 km
>= 3000ft
5 à 8 km
1000 à 3000 ft
1500m à 5 km
500 à 1000 ft
800 à 1500m
200 à 500 ft
< 800m
< 200 ft
Symboles :   Orages  Brouillard  Fortes neiges  Fortes précipitations  Vent > 20 kt
SIGMETs :   Divers  Orages  Givrage  Turbulence  Onde Orograph.  Cendres Volcan.







- Altitude de l'aérodrome : 129 ft
- Code IATA : ZCN


ETHC - Celle

DERNIER METAR :
  • 211720Z 26009KT 3000 -DZ BR BKN006 BKN015 09/08 Q1025 YLO

METARs EXPIRÉS :
  • 211655Z 25009KT 3000 -DZ BR BKN006 BKN015 09/08 Q1024 YLO
  • 211630Z 25011KT 3000 -DZ BR SCT007 BKN015 09/08 Q1024 YLO FCST CANCEL
  • 211626Z 25012KT 4000 -DZ BR SCT009 BKN016 09/08 Q1024 GRN WHT TEMPO GRN
  • 211520Z 25008KT 9999 BKN018 10/07 Q1024 WHT WHT

TAF AMD TAF ETHC
Valide du 21 à 15h jusqu'au 22 à 00h UTC


211630Z 2115/2124 26010KT 9999 NSW SCT015 BKN025
TEMPO 2115/2117 25012G22KT 5000 -RA SCT012 BKN020
TEMPO 2117/2124 27010KT 4000 -RADZ BKN012 CANCEL 1630
Pas de NOTAMs connus pour ce terrain.



MET'MAP, la Météo Aéronautique d'un coup d'oeil ! - Copyright ORBIFLY Décembre 2007 - Disclaimer

ORBIFLY MET'MAP TEAM :

Programmation & Développement : Alexandra Zaïnal
Conception & Développement : Baudouin d'Aumeries
Co-Programmation & Développement : Marc-Olivier Méhu
Soutien technique & logistique : Manuel Goepfert

Contact : metmap@orbifly.com




SOURCES & CREDITS :

   NOAA